Time;durP1;ratioP1;P1;durP2;ratioP2;P2;SDS_P1;SDS_P2;PMS_P1;PMS_P2;Temp;Humidity;BMP_temperature;BMP_pressure;BME280_temperature;BME280_humidity;BME280_pressure;Samples;Min_cycle;Max_cycle;Signal;HPM_P1;HPM_P2
2021/09/13 00:09:22;;;;;;;15.70;9.43;;;;;;;17.04;100.00;100262.17;713771;1199;115512;-72
2021/09/13 00:24:24;;;;;;;15.55;9.68;;;;;;;17.08;100.00;100248.37;713905;1200;115181;-73
2021/09/13 00:39:26;;;;;;;18.55;10.85;;;;;;;17.28;100.00;100261.94;713846;1177;115555;-71
2021/09/13 00:54:28;;;;;;;21.93;12.60;;;;;;;17.25;100.00;100264.14;713864;1203;114626;-72
2021/09/13 01:09:30;;;;;;;15.43;10.03;;;;;;;17.19;100.00;100251.59;713845;1203;114776;-72
2021/09/13 01:24:34;;;;;;;17.48;10.78;;;;;;;17.01;100.00;100243.95;713877;1200;115203;-72
2021/09/13 01:39:36;;;;;;;17.88;11.73;;;;;;;16.91;100.00;100231.78;713902;1189;114627;-72
2021/09/13 01:54:38;;;;;;;21.17;12.27;;;;;;;16.87;100.00;100219.05;713900;1200;115236;-71
2021/09/13 02:09:40;;;;;;;22.30;12.65;;;;;;;16.88;100.00;100228.63;713886;1199;114900;-71
2021/09/13 02:24:42;;;;;;;21.77;12.47;;;;;;;17.09;100.00;100236.77;713780;1200;115055;-71
2021/09/13 02:39:44;;;;;;;20.25;12.90;;;;;;;16.94;100.00;100241.20;713736;1177;114617;-72
2021/09/13 02:54:46;;;;;;;20.30;12.33;;;;;;;16.76;100.00;100255.55;713758;1199;115669;-73
2021/09/13 03:09:48;;;;;;;19.23;12.05;;;;;;;16.60;100.00;100248.54;713690;1199;115058;-73
2021/09/13 03:24:51;;;;;;;22.43;13.28;;;;;;;16.74;100.00;100262.83;713957;1200;115096;-73
2021/09/13 03:39:53;;;;;;;21.83;12.55;;;;;;;16.84;100.00;100272.37;713925;1184;114652;-73
2021/09/13 03:54:55;;;;;;;27.50;13.40;;;;;;;16.76;100.00;100266.14;713945;1199;115702;-73
2021/09/13 04:25:18;;;;;;;29.38;19.63;;;;;;;16.52;100.00;100269.75;714080;1203;114532;-71
2021/09/13 04:40:20;;;;;;;47.93;29.95;;;;;;;16.52;100.00;100284.83;714245;1180;114607;-70
2021/09/13 04:55:22;;;;;;;50.47;30.17;;;;;;;16.46;100.00;100276.58;714599;1199;115946;-71
2021/09/13 05:10:25;;;;;;;26.73;14.85;;;;;;;16.64;100.00;100272.82;718030;1165;115066;-76
2021/09/13 05:25:28;;;;;;;27.75;15.50;;;;;;;16.89;100.00;100264.72;715537;1199;115323;-74
2021/09/13 05:40:30;;;;;;;18.90;13.15;;;;;;;17.18;100.00;100279.91;714299;1199;115842;-75
2021/09/13 05:55:33;;;;;;;23.95;13.63;;;;;;;17.26;100.00;100297.58;714074;1199;114163;-75
2021/09/13 06:10:35;;;;;;;23.17;13.37;;;;;;;17.41;100.00;100302.94;714016;1199;115233;-75
2021/09/13 06:25:38;;;;;;;19.37;13.57;;;;;;;17.57;100.00;100294.81;714063;1199;114499;-73
2021/09/13 06:40:40;;;;;;;25.90;13.87;;;;;;;18.02;100.00;100302.02;714041;1200;115552;-71
2021/09/13 06:55:43;;;;;;;19.58;13.48;;;;;;;18.57;100.00;100311.27;713988;1199;115085;-74
2021/09/13 07:10:47;;;;;;;24.65;15.20;;;;;;;18.85;100.00;100320.36;714013;1203;114629;-77
2021/09/13 07:25:50;;;;;;;22.70;14.47;;;;;;;19.16;100.00;100330.69;714254;1199;115054;-76
2021/09/13 07:40:52;;;;;;;22.25;13.55;;;;;;;20.17;100.00;100342.09;714081;1179;115564;-75
2021/09/13 07:55:54;;;;;;;17.65;12.00;;;;;;;20.42;100.00;100351.22;715748;1177;114958;-73
2021/09/13 08:10:56;;;;;;;18.88;10.80;;;;;;;20.78;100.00;100365.31;715557;1203;114307;-72
2021/09/13 08:26:04;;;;;;;14.13;9.93;;;;;;;20.45;100.00;100371.31;714607;1200;114992;-72
2021/09/13 08:41:07;;;;;;;15.75;10.85;;;;;;;21.21;100.00;100385.53;714161;1200;114816;-72
2021/09/13 08:56:14;;;;;;;17.63;11.33;;;;;;;21.67;100.00;100387.42;714185;1203;115016;-73
2021/09/13 09:11:16;;;;;;;17.43;11.98;;;;;;;21.33;100.00;100401.75;715160;1200;114340;-72
2021/09/13 09:26:18;;;;;;;14.23;11.05;;;;;;;20.69;100.00;100399.31;714212;1200;115601;-73
2021/09/13 09:41:21;;;;;;;18.28;11.38;;;;;;;20.89;100.00;100404.73;714058;1199;115709;-73
2021/09/13 09:56:26;;;;;;;31.65;15.98;;;;;;;20.82;100.00;100416.39;714098;1203;114409;-70
2021/09/13 10:11:28;;;;;;;17.65;12.70;;;;;;;20.95;100.00;100413.77;714126;1200;116230;-72
2021/09/13 10:26:31;;;;;;;11.38;6.73;;;;;;;22.10;100.00;100426.20;713797;1200;115544;-70
2021/09/13 10:41:56;;;;;;;8.63;7.10;;;;;;;22.52;100.00;100421.39;719932;1200;114919;-70
2021/09/13 10:57:05;;;;;;;13.35;6.80;;;;;;;22.50;100.00;100420.80;719941;1177;115434;-71
2021/09/13 11:12:10;;;;;;;11.08;9.05;;;;;;;23.07;97.46;100425.48;715693;1200;114873;-72
2021/09/13 11:27:14;;;;;;;7.48;5.70;;;;;;;24.40;90.67;100423.59;717736;1202;114818;-71
2021/09/13 11:42:20;;;;;;;13.73;5.80;;;;;;;23.52;88.79;100432.64;714073;1199;114862;-71
2021/09/13 11:57:28;;;;;;;8.73;4.75;;;;;;;24.17;86.53;100420.76;714288;1177;115037;-76
2021/09/13 12:12:31;;;;;;;5.55;4.65;;;;;;;24.26;83.30;100422.10;716129;1177;113968;-76
2021/09/13 12:27:43;;;;;;;6.37;4.30;;;;;;;24.56;80.92;100426.70;714217;1177;113978;-76
2021/09/13 12:42:55;;;;;;;7.48;5.13;;;;;;;24.02;78.43;100437.16;714007;1200;114496;-76
2021/09/13 12:57:57;;;;;;;5.90;4.48;;;;;;;24.50;78.57;100430.30;714398;1200;114113;-76
2021/09/13 13:12:59;;;;;;;5.53;3.37;;;;;;;23.75;78.09;100440.90;714360;1194;114157;-76
2021/09/13 13:28:02;;;;;;;6.85;3.60;;;;;;;23.54;79.19;100447.41;714452;1203;114546;-72
2021/09/13 13:43:05;;;;;;;5.28;2.75;;;;;;;25.18;77.69;100425.72;715312;1205;115106;-70
2021/09/13 13:58:07;;;;;;;3.53;2.40;;;;;;;36.20;59.45;100424.20;714369;1178;113918;-70
2021/09/13 14:13:10;;;;;;;3.95;1.88;;;;;;;36.93;51.05;100414.16;713968;1202;115528;-70
2021/09/13 14:28:13;;;;;;;2.68;2.35;;;;;;;28.18;56.52;100409.09;714030;1199;115485;-71
2021/09/13 14:43:16;;;;;;;3.63;2.97;;;;;;;25.96;62.15;100425.73;714147;1200;115082;-71
2021/09/13 14:58:18;;;;;;;100.48;22.13;;;;;;;24.68;67.50;100430.31;714361;1202;115349;-74
2021/09/13 15:13:20;;;;;;;6.60;2.80;;;;;;;25.69;67.93;100434.27;714011;1202;115232;-71
2021/09/13 15:28:23;;;;;;;4.85;3.35;;;;;;;24.33;68.75;100428.20;714052;1181;113931;-71
2021/09/13 15:43:25;;;;;;;18.43;11.85;;;;;;;23.33;72.72;100439.75;714427;1203;113767;-72
2021/09/13 15:58:28;;;;;;;10.18;3.78;;;;;;;22.36;74.81;100437.91;714800;1203;115492;-69
2021/09/13 16:13:30;;;;;;;10.50;5.08;;;;;;;21.76;77.93;100446.75;714810;1177;115204;-69
2021/09/13 16:28:33;;;;;;;6.38;3.80;;;;;;;21.37;79.75;100449.16;714658;1177;114570;-68
2021/09/13 16:43:36;;;;;;;9.08;4.55;;;;;;;20.97;83.02;100457.06;714732;1203;114133;-73
2021/09/13 16:58:39;;;;;;;10.28;6.28;;;;;;;20.87;85.57;100464.61;714896;1178;113851;-72
2021/09/13 17:13:43;;;;;;;16.40;8.13;;;;;;;20.65;87.77;100464.66;714745;1200;115247;-72
2021/09/13 17:28:46;;;;;;;43.63;24.10;;;;;;;20.43;89.08;100480.75;714476;1199;115639;-71
2021/09/13 17:43:49;;;;;;;17.18;10.00;;;;;;;20.20;91.19;100496.16;714618;1200;115210;-73
2021/09/13 17:58:52;;;;;;;20.33;10.40;;;;;;;19.72;93.88;100524.18;714796;1199;116181;-69
2021/09/13 18:13:55;;;;;;;18.95;10.43;;;;;;;19.56;95.57;100527.91;721162;1199;114641;-70
2021/09/13 18:28:57;;;;;;;16.90;10.93;;;;;;;19.56;97.57;100533.23;714249;1205;113999;-70
2021/09/13 18:44:00;;;;;;;13.65;10.33;;;;;;;19.36;99.32;100546.31;714485;1199;114308;-71
2021/09/13 18:59:03;;;;;;;11.00;6.40;;;;;;;19.24;100.00;100561.93;714991;1200;115016;-68
2021/09/13 19:14:06;;;;;;;10.55;5.58;;;;;;;19.24;100.00;100577.04;714667;1202;114308;-70
2021/09/13 19:29:08;;;;;;;6.30;4.07;;;;;;;19.02;100.00;100597.43;715113;1177;115307;-69
2021/09/13 19:44:10;;;;;;;5.53;4.23;;;;;;;18.76;100.00;100603.96;714910;1177;114940;-69
2021/09/13 19:59:13;;;;;;;5.00;3.70;;;;;;;18.57;100.00;100603.47;714984;1200;114935;-69
2021/09/13 20:14:15;;;;;;;6.70;4.27;;;;;;;18.45;100.00;100623.52;715469;1189;114437;-70
2021/09/13 20:29:17;;;;;;;8.80;5.20;;;;;;;18.11;100.00;100622.92;715171;1202;113955;-70
2021/09/13 20:44:20;;;;;;;6.50;3.63;;;;;;;18.10;100.00;100631.06;715299;1200;114099;-68
2021/09/13 20:59:22;;;;;;;7.35;3.60;;;;;;;17.89;100.00;100642.28;715631;1199;114822;-69
2021/09/13 21:14:24;;;;;;;5.18;2.83;;;;;;;17.71;100.00;100645.18;715133;1176;114057;-69
2021/09/13 21:29:28;;;;;;;5.78;3.30;;;;;;;17.75;100.00;100649.98;715402;1199;114223;-70
2021/09/13 21:44:30;;;;;;;7.83;4.77;;;;;;;17.74;100.00;100645.67;715137;1200;115552;-69
2021/09/13 21:59:32;;;;;;;9.50;5.38;;;;;;;17.73;100.00;100646.66;721957;1200;114581;-70
2021/09/13 22:14:34;;;;;;;8.38;5.50;;;;;;;17.79;100.00;100651.28;715234;1200;114117;-72
2021/09/13 22:29:37;;;;;;;4.98;3.65;;;;;;;17.62;100.00;100671.75;715004;1200;113976;-71
2021/09/13 22:44:39;;;;;;;7.70;4.33;;;;;;;17.57;100.00;100667.97;715081;1199;114190;-71
2021/09/13 22:59:41;;;;;;;6.55;4.33;;;;;;;17.15;100.00;100667.25;714988;1199;114661;-72
2021/09/13 23:14:43;;;;;;;6.58;5.00;;;;;;;16.78;100.00;100666.77;714930;1199;114841;-71
2021/09/13 23:29:46;;;;;;;5.68;4.23;;;;;;;16.62;100.00;100664.95;714561;1199;114436;-72
2021/09/13 23:44:49;;;;;;;9.18;5.90;;;;;;;16.42;100.00;100677.70;714436;1203;114256;-72
2021/09/13 23:59:52;;;;;;;8.10;5.53;;;;;;;16.37;100.00;100673.89;715010;1200;114336;-72
